createdAt,value
2023-05-06T00:00:25.522Z,3.50
2023-05-06T00:03:47.133Z,3.50
2023-05-06T00:06:50.222Z,3.50
2023-05-06T00:09:52.733Z,3.40
2023-05-06T00:12:55.749Z,3.70
2023-05-06T00:15:58.395Z,3.90
2023-05-06T00:19:01.054Z,3.80
2023-05-06T00:22:03.710Z,4.10
2023-05-06T00:25:07.497Z,4.10
2023-05-06T00:32:34.456Z,3.70
2023-05-06T00:35:37.108Z,4.10
2023-05-06T00:38:39.726Z,3.50
2023-05-06T00:41:42.281Z,3.60
2023-05-06T00:44:45.155Z,3.70
2023-05-06T00:47:47.957Z,3.90
2023-05-06T00:50:50.791Z,4.30
2023-05-06T00:53:53.915Z,3.90
2023-05-06T01:01:05.055Z,3.30
2023-05-06T01:04:08.837Z,3.90
2023-05-06T01:07:33.162Z,3.70
2023-05-06T01:14:30.703Z,3.50
2023-05-06T01:17:35.844Z,3.30
2023-05-06T01:20:40.084Z,4.00
2023-05-06T01:23:58.102Z,3.70
2023-05-06T01:27:01.477Z,4.00
2023-05-06T01:30:04.679Z,3.90
2023-05-06T01:33:23.814Z,4.20
2023-05-06T01:36:39.162Z,3.80
2023-05-06T01:39:42.965Z,3.60
2023-05-06T01:42:49.408Z,3.50
2023-05-06T01:45:54.946Z,3.90
2023-05-06T01:49:05.676Z,3.50
2023-05-06T01:52:08.296Z,3.40
2023-05-06T01:55:11.394Z,3.90
2023-05-06T01:58:14.940Z,3.80
2023-05-06T02:01:17.843Z,3.50
2023-05-06T02:04:20.466Z,3.80
2023-05-06T02:07:23.007Z,3.90
2023-05-06T02:10:25.692Z,4.00
2023-05-06T02:13:28.344Z,3.70
2023-05-06T02:16:31.120Z,3.40
2023-05-06T02:19:34.488Z,3.60
2023-05-06T02:22:37.151Z,4.10
2023-05-06T02:25:39.718Z,4.00
2023-05-06T02:28:42.684Z,3.90
2023-05-06T02:31:45.470Z,3.80
2023-05-06T02:34:48.044Z,3.90
2023-05-06T02:37:50.568Z,4.50
2023-05-06T02:40:53.261Z,4.00
2023-05-06T02:43:55.818Z,4.10
2023-05-06T02:46:58.367Z,4.30
2023-05-06T02:50:01.086Z,3.80
2023-05-06T02:53:03.731Z,3.70
2023-05-06T02:56:07.717Z,4.20
2023-05-06T02:59:10.364Z,3.80
2023-05-06T03:02:15.295Z,4.40
2023-05-06T03:05:18.044Z,4.10
2023-05-06T03:08:20.707Z,4.50
2023-05-06T03:11:23.264Z,4.10
2023-05-06T03:18:07.754Z,4.50
2023-05-06T03:21:11.280Z,4.30
2023-05-06T03:24:13.841Z,4.70
2023-05-06T03:27:16.421Z,3.90
2023-05-06T03:30:19.024Z,4.60
2023-05-06T03:33:21.834Z,4.40
2023-05-06T03:36:25.444Z,3.80
2023-05-06T03:39:27.994Z,4.20
2023-05-06T03:42:31.380Z,4.70
2023-05-06T03:45:34.236Z,4.60
2023-05-06T03:48:37.110Z,4.50
2023-05-06T03:51:40.061Z,4.90
2023-05-06T03:54:42.764Z,4.10
2023-05-06T03:57:45.374Z,4.50
2023-05-06T04:00:47.972Z,4.20
2023-05-06T04:03:52.152Z,4.10
2023-05-06T04:07:07.527Z,4.20
2023-05-06T04:10:10.581Z,4.90
2023-05-06T04:13:13.384Z,4.40
2023-05-06T04:16:20.247Z,4.40
2023-05-06T04:19:23.168Z,5.10
2023-05-06T04:22:25.968Z,4.40
2023-05-06T04:25:28.942Z,4.00
2023-05-06T04:28:31.606Z,4.50
2023-05-06T04:31:35.199Z,5.20
2023-05-06T04:34:51.981Z,4.50
2023-05-06T04:37:54.507Z,4.70
2023-05-06T04:40:57.516Z,4.60
2023-05-06T04:44:00.115Z,5.60
2023-05-06T04:47:02.746Z,5.30
2023-05-06T04:50:05.898Z,4.60
2023-05-06T04:53:09.005Z,4.70
2023-05-06T04:56:11.988Z,5.60
2023-05-06T04:59:14.567Z,5.00
2023-05-06T05:02:29.814Z,5.10
2023-05-06T05:05:34.489Z,5.60
2023-05-06T05:08:37.175Z,5.30
2023-05-06T05:11:39.818Z,5.10
2023-05-06T05:14:42.903Z,4.40
2023-05-06T05:17:45.645Z,4.80
2023-05-06T05:20:48.435Z,5.00
2023-05-06T05:23:50.985Z,4.50
2023-05-06T05:26:53.596Z,4.60
2023-05-06T05:29:56.758Z,5.60
2023-05-06T05:32:59.419Z,4.20
2023-05-06T05:36:04.271Z,5.50
2023-05-06T05:39:06.885Z,5.10
2023-05-06T05:42:09.552Z,5.40
2023-05-06T05:45:12.213Z,4.90
2023-05-06T05:48:14.786Z,5.40
2023-05-06T05:51:17.330Z,5.60
2023-05-06T05:54:19.925Z,5.10
2023-05-06T05:57:22.584Z,4.40
2023-05-06T06:00:25.442Z,5.10
2023-05-06T06:03:28.125Z,5.20
2023-05-06T06:06:31.686Z,4.90
2023-05-06T06:09:34.458Z,4.00
2023-05-06T06:12:54.881Z,4.20
2023-05-06T06:15:58.182Z,4.70
2023-05-06T06:19:00.877Z,4.20
2023-05-06T06:22:03.488Z,4.10
2023-05-06T06:25:07.143Z,4.20
2023-05-06T06:28:10.297Z,5.00
2023-05-06T06:31:13.294Z,4.70
2023-05-06T06:38:10.968Z,4.10
2023-05-06T06:41:13.524Z,5.00
2023-05-06T06:44:16.069Z,4.60
2023-05-06T06:47:39.959Z,4.00
2023-05-06T06:50:43.152Z,4.80
2023-05-06T06:53:48.353Z,5.00
2023-05-06T06:56:53.719Z,5.00
2023-05-06T06:59:56.359Z,4.50
2023-05-06T07:02:59.076Z,4.60
2023-05-06T07:06:01.793Z,5.10
2023-05-06T07:09:04.371Z,4.80
2023-05-06T07:12:07.742Z,4.60
2023-05-06T07:15:11.064Z,4.30
2023-05-06T07:18:13.952Z,4.70
2023-05-06T07:21:16.751Z,4.30
2023-05-06T07:24:19.524Z,4.80
2023-05-06T07:27:22.299Z,4.30
2023-05-06T07:30:25.166Z,5.40
2023-05-06T07:33:27.772Z,4.60
2023-05-06T07:36:36.055Z,4.00
2023-05-06T07:39:39.419Z,4.20
2023-05-06T07:42:43.103Z,5.10
2023-05-06T07:45:46.006Z,4.00
2023-05-06T07:48:48.555Z,4.30
2023-05-06T07:51:51.293Z,4.20
2023-05-06T07:54:54.096Z,4.50
2023-05-06T07:57:56.713Z,3.90
2023-05-06T08:01:00.225Z,3.90
2023-05-06T08:04:03.036Z,3.80
2023-05-06T08:07:05.814Z,4.50
2023-05-06T08:10:10.267Z,3.50
2023-05-06T08:13:13.543Z,3.50
2023-05-06T08:16:17.086Z,3.90
2023-05-06T08:19:20.358Z,3.90
2023-05-06T08:22:22.937Z,4.30
2023-05-06T08:25:25.627Z,3.70
2023-05-06T08:28:29.427Z,3.90
2023-05-06T08:31:32.049Z,4.40
2023-05-06T08:34:35.206Z,4.00
2023-05-06T08:37:37.920Z,3.70
2023-05-06T08:40:43.494Z,4.10
2023-05-06T08:43:48.492Z,4.30
2023-05-06T08:46:51.651Z,3.70
2023-05-06T08:49:54.414Z,3.70
2023-05-06T08:52:57.698Z,4.70
2023-05-06T08:56:05.633Z,5.70
2023-05-06T08:59:09.586Z,4.20
2023-05-06T09:02:13.284Z,5.20
2023-05-06T09:05:16.528Z,5.20
2023-05-06T09:08:19.109Z,5.20
2023-05-06T09:11:28.009Z,4.30
2023-05-06T09:14:30.672Z,4.00
2023-05-06T09:17:33.415Z,4.60
2023-05-06T09:20:40.760Z,5.30
2023-05-06T09:23:43.728Z,4.90
2023-05-06T09:26:47.289Z,5.00
2023-05-06T09:30:01.190Z,5.00
2023-05-06T09:33:05.088Z,5.70
2023-05-06T09:36:08.163Z,4.90
2023-05-06T09:39:10.943Z,4.50
2023-05-06T09:42:13.703Z,4.80
2023-05-06T09:45:17.572Z,5.60
2023-05-06T09:48:20.569Z,5.90
2023-05-06T09:51:23.645Z,5.00
2023-05-06T09:54:27.432Z,4.80
2023-05-06T09:57:31.310Z,4.80
2023-05-06T10:00:34.401Z,5.40
2023-05-06T10:03:38.675Z,4.60
2023-05-06T10:06:41.689Z,5.20
2023-05-06T10:09:44.295Z,5.90
2023-05-06T10:12:48.733Z,5.20
2023-05-06T10:15:52.347Z,5.50
2023-05-06T10:18:56.530Z,4.90
2023-05-06T10:22:07.689Z,4.70
2023-05-06T10:25:19.285Z,5.00
2023-05-06T10:28:30.793Z,5.40
2023-05-06T10:31:35.723Z,5.20
2023-05-06T10:34:48.449Z,4.80
2023-05-06T10:37:52.429Z,5.80
2023-05-06T10:40:56.214Z,5.90
2023-05-06T10:44:00.033Z,5.20
2023-05-06T10:47:02.889Z,4.80
2023-05-06T10:50:22.319Z,5.80
2023-05-06T10:54:02.792Z,6.70
2023-05-06T11:00:13.177Z,4.90
2023-05-06T11:03:18.882Z,5.40
2023-05-06T11:06:44.852Z,5.60
2023-05-06T11:10:02.300Z,5.50
2023-05-06T11:13:22.884Z,5.40
2023-05-06T11:16:48.691Z,5.40
2023-05-06T11:20:21.851Z,5.70
2023-05-06T11:23:49.468Z,5.10
2023-05-06T11:26:53.181Z,5.40
2023-05-06T11:29:55.936Z,5.70
2023-05-06T11:33:05.408Z,7.00
2023-05-06T11:36:15.143Z,4.90
2023-05-06T11:39:17.864Z,4.40
2023-05-06T11:42:28.612Z,5.00
2023-05-06T11:45:41.525Z,4.70
2023-05-06T11:48:44.375Z,4.20
2023-05-06T11:51:49.807Z,4.50
2023-05-06T11:54:53.992Z,4.90
2023-05-06T11:57:56.603Z,5.30
2023-05-06T12:01:02.630Z,4.10
2023-05-06T12:04:05.891Z,4.60
2023-05-06T12:07:10.888Z,4.80
2023-05-06T12:10:14.276Z,5.10
2023-05-06T12:13:18.395Z,3.50
2023-05-06T12:16:22.889Z,3.50
2023-05-06T12:19:26.706Z,4.50
2023-05-06T12:22:29.456Z,4.50
2023-05-06T12:25:32.532Z,3.90
2023-05-06T12:28:36.948Z,3.90
2023-05-06T12:31:39.567Z,4.00
2023-05-06T12:34:42.265Z,5.20
2023-05-06T12:37:44.832Z,4.00
2023-05-06T12:40:54.314Z,3.40
2023-05-06T12:43:57.551Z,3.70
2023-05-06T12:47:05.118Z,5.70
2023-05-06T12:50:08.496Z,4.20
2023-05-06T12:53:15.860Z,3.70
2023-05-06T12:56:19.549Z,4.00
2023-05-06T12:59:25.897Z,4.80
2023-05-06T13:02:28.560Z,4.30
2023-05-06T13:05:33.386Z,4.90
2023-05-06T13:08:36.176Z,5.00
2023-05-06T13:11:38.911Z,5.50
2023-05-06T13:14:41.599Z,4.50
2023-05-06T13:17:44.272Z,4.90
2023-05-06T13:20:46.988Z,4.20
2023-05-06T13:23:49.602Z,5.00
2023-05-06T13:26:56.274Z,3.80
2023-05-06T13:29:58.969Z,4.10
2023-05-06T13:33:01.637Z,4.70
2023-05-06T13:36:05.495Z,5.00
2023-05-06T13:39:08.921Z,4.90
2023-05-06T13:42:12.007Z,4.20
2023-05-06T13:45:14.570Z,4.50
2023-05-06T13:48:18.154Z,4.20
2023-05-06T13:51:20.924Z,3.60
2023-05-06T13:54:23.471Z,4.00
2023-05-06T13:57:26.161Z,4.20
2023-05-06T14:00:36.375Z,4.70
2023-05-06T14:03:39.168Z,3.80
2023-05-06T14:06:42.033Z,4.60
2023-05-06T14:09:44.651Z,5.20
2023-05-06T14:12:48.225Z,4.90
2023-05-06T14:15:51.210Z,4.20
2023-05-06T14:19:14.177Z,4.20
2023-05-06T14:22:16.848Z,4.30
2023-05-06T14:25:19.617Z,3.80
2023-05-06T14:28:22.340Z,3.30
2023-05-06T14:31:25.137Z,3.40
2023-05-06T14:34:28.037Z,4.00
2023-05-06T14:37:30.737Z,4.00
2023-05-06T14:40:33.552Z,5.60
2023-05-06T14:43:36.159Z,3.80
2023-05-06T14:46:38.796Z,3.30
2023-05-06T14:49:41.548Z,3.90
2023-05-06T14:52:44.139Z,3.60
2023-05-06T14:55:48.947Z,3.80
2023-05-06T14:59:14.721Z,3.50
2023-05-06T15:02:17.388Z,3.80
2023-05-06T15:05:20.172Z,3.00
2023-05-06T15:08:23.120Z,3.70
2023-05-06T15:11:25.743Z,3.90
2023-05-06T15:21:06.212Z,3.90
2023-05-06T15:27:59.130Z,3.10
2023-05-06T15:31:01.803Z,3.80
2023-05-06T15:34:20.230Z,4.20
2023-05-06T15:37:23.953Z,4.30
2023-05-06T15:40:27.142Z,3.20
2023-05-06T15:43:37.649Z,4.00
2023-05-06T15:47:03.635Z,4.10
2023-05-06T15:50:16.519Z,4.60
2023-05-06T15:53:24.586Z,3.90
2023-05-06T15:56:27.347Z,4.10
2023-05-06T15:59:30.073Z,4.30
2023-05-06T16:02:39.009Z,4.90
2023-05-06T16:05:41.942Z,3.70
2023-05-06T16:08:44.605Z,4.00
2023-05-06T16:11:47.276Z,4.80
2023-05-06T16:14:49.829Z,4.40
2023-05-06T16:17:52.420Z,4.30
2023-05-06T16:20:55.146Z,3.70
2023-05-06T16:23:57.819Z,4.50
2023-05-06T16:31:06.031Z,4.00
2023-05-06T16:34:08.655Z,4.90
2023-05-06T16:37:46.328Z,4.40
2023-05-06T16:40:51.087Z,5.10
2023-05-06T16:43:54.101Z,3.60
2023-05-06T16:51:15.870Z,4.00
2023-05-06T16:54:18.700Z,4.90
2023-05-06T16:58:04.938Z,4.60
2023-05-06T17:01:14.265Z,4.10
2023-05-06T17:04:16.979Z,4.90
2023-05-06T17:07:19.551Z,5.80
2023-05-06T17:10:22.311Z,4.00
2023-05-06T17:13:24.922Z,4.70
2023-05-06T17:16:27.564Z,5.00
2023-05-06T17:19:30.325Z,6.00
2023-05-06T17:22:33.077Z,4.90
2023-05-06T17:25:35.885Z,4.50
2023-05-06T17:28:38.516Z,5.40
2023-05-06T17:31:41.064Z,6.20
2023-05-06T17:34:43.734Z,5.40
2023-05-06T17:37:46.595Z,5.20
2023-05-06T17:40:49.289Z,5.40
2023-05-06T17:43:52.041Z,5.30
2023-05-06T17:46:54.664Z,5.10
2023-05-06T17:49:57.651Z,5.20
2023-05-06T17:56:54.375Z,6.00
2023-05-06T18:00:09.014Z,6.10
2023-05-06T18:03:11.864Z,5.90
2023-05-06T18:06:14.899Z,6.40
2023-05-06T18:09:17.595Z,9.10
2023-05-06T18:12:35.582Z,5.60
2023-05-06T18:15:38.333Z,5.80
2023-05-06T18:18:40.970Z,5.30
2023-05-06T18:21:43.641Z,5.10
2023-05-06T18:24:46.192Z,4.20
2023-05-06T18:27:49.365Z,4.00
2023-05-06T18:30:52.040Z,4.80
2023-05-06T18:33:54.607Z,4.00
2023-05-06T18:36:58.064Z,4.90
2023-05-06T18:40:00.860Z,4.90
2023-05-06T18:43:03.631Z,3.90
2023-05-06T18:46:06.347Z,4.60
2023-05-06T18:49:09.069Z,3.40
2023-05-06T18:52:14.570Z,4.20
2023-05-06T18:55:17.112Z,4.20
2023-05-06T18:58:19.816Z,4.30
2023-05-06T19:01:25.463Z,4.50
2023-05-06T19:04:28.591Z,3.60
2023-05-06T19:07:31.392Z,3.90
2023-05-06T19:10:34.381Z,4.90
2023-05-06T19:13:37.033Z,4.20
2023-05-06T19:16:39.726Z,3.70
2023-05-06T19:19:42.525Z,4.10
2023-05-06T19:22:45.134Z,3.70
2023-05-06T19:25:47.906Z,3.50
2023-05-06T19:28:50.571Z,3.20
2023-05-06T19:31:53.252Z,4.00
2023-05-06T19:34:55.855Z,4.20
2023-05-06T19:41:49.118Z,2.70
2023-05-06T19:44:51.764Z,3.60
2023-05-06T19:47:54.444Z,3.20
2023-05-06T19:55:03.862Z,2.80
2023-05-06T19:58:06.441Z,3.20
2023-05-06T20:01:17.209Z,3.60
2023-05-06T20:04:20.151Z,3.40
2023-05-06T20:07:23.270Z,3.30
2023-05-06T20:10:27.606Z,2.90
2023-05-06T20:13:30.282Z,3.50
2023-05-06T20:16:33.195Z,2.80
2023-05-06T20:19:35.892Z,3.30
2023-05-06T20:22:40.365Z,4.80
2023-05-06T20:25:43.087Z,4.10
2023-05-06T20:29:08.776Z,3.80
2023-05-06T20:32:12.150Z,3.20
2023-05-06T20:35:15.028Z,3.40
2023-05-06T20:42:09.225Z,3.30
2023-05-06T20:45:13.048Z,3.50
2023-05-06T20:48:15.958Z,3.70
2023-05-06T20:51:18.893Z,4.60
2023-05-06T20:54:21.407Z,3.40
2023-05-06T20:57:23.933Z,3.80
2023-05-06T21:04:09.774Z,4.00
2023-05-06T21:07:12.366Z,3.80
2023-05-06T21:10:15.072Z,3.60
2023-05-06T21:13:17.676Z,3.80
2023-05-06T21:16:20.432Z,3.90
2023-05-06T21:19:22.987Z,4.20
2023-05-06T21:22:25.759Z,3.80
2023-05-06T21:25:28.351Z,3.90
2023-05-06T21:28:30.990Z,6.70
2023-05-06T21:31:33.859Z,3.80
2023-05-06T21:38:30.867Z,4.40
2023-05-06T21:41:35.658Z,5.10
2023-05-06T21:44:49.811Z,3.80
2023-05-06T21:47:52.382Z,3.50
2023-05-06T21:50:58.311Z,5.00
2023-05-06T21:54:01.474Z,4.60
2023-05-06T21:57:08.085Z,4.50
2023-05-06T22:00:12.442Z,5.20
2023-05-06T22:07:10.009Z,6.60
2023-05-06T22:10:13.581Z,4.60
2023-05-06T22:13:16.631Z,5.20
2023-05-06T22:16:30.467Z,5.40
2023-05-06T22:19:33.149Z,5.80
2023-05-06T22:23:21.220Z,5.50
2023-05-06T22:26:24.497Z,5.30
2023-05-06T22:29:27.072Z,5.50
2023-05-06T22:32:29.743Z,6.20
2023-05-06T22:35:32.406Z,5.20
2023-05-06T22:38:34.930Z,5.20
2023-05-06T22:41:37.619Z,5.50
2023-05-06T22:48:35.034Z,5.50
2023-05-06T22:51:37.696Z,5.40
2023-05-06T22:54:40.282Z,5.80
2023-05-06T22:57:45.077Z,6.20
2023-05-06T23:00:48.190Z,4.70
2023-05-06T23:03:51.260Z,5.00
2023-05-06T23:06:53.854Z,5.30
2023-05-06T23:09:56.452Z,5.70
2023-05-06T23:13:01.936Z,4.80
2023-05-06T23:16:05.244Z,4.90
2023-05-06T23:19:07.908Z,5.40
2023-05-06T23:22:12.544Z,5.00
2023-05-06T23:25:15.408Z,5.00
2023-05-06T23:28:18.093Z,5.00
2023-05-06T23:31:21.078Z,5.30
2023-05-06T23:42:13.204Z,4.90
2023-05-06T23:45:16.087Z,5.90
2023-05-06T23:48:18.663Z,5.10
2023-05-06T23:51:21.249Z,4.90
2023-05-06T23:54:23.883Z,4.70
